createdAt,value
2019-03-20T00:00:54.005Z,83.85
2019-03-20T00:03:27.807Z,77.58
2019-03-20T00:05:59.796Z,83.10
2019-03-20T00:08:31.702Z,97.25
2019-03-20T00:11:05.392Z,111.62
2019-03-20T00:13:37.462Z,88.25
2019-03-20T00:16:08.506Z,90.17
2019-03-20T00:18:40.490Z,106.83
2019-03-20T00:21:12.378Z,89.92
2019-03-20T00:23:46.143Z,82.35
2019-03-20T00:26:17.148Z,93.20
2019-03-20T00:28:50.975Z,80.95
2019-03-20T00:31:22.875Z,89.40
2019-03-20T00:33:54.900Z,90.97
2019-03-20T00:36:25.924Z,93.70
2019-03-20T00:38:57.830Z,92.90
2019-03-20T00:41:31.914Z,97.75
2019-03-20T00:44:03.522Z,106.17
2019-03-20T00:46:37.327Z,113.37
2019-03-20T00:49:08.353Z,93.40
2019-03-20T00:51:40.408Z,98.62
2019-03-20T00:54:11.308Z,84.97
2019-03-20T00:56:45.004Z,82.95
2019-03-20T00:59:19.883Z,88.22
2019-03-20T01:01:53.740Z,85.07
2019-03-20T01:04:25.716Z,87.53
2019-03-20T01:06:59.486Z,92.27
2019-03-20T01:09:31.550Z,92.57
2019-03-20T01:12:03.556Z,94.03
2019-03-20T01:14:37.573Z,96.80
2019-03-20T01:17:09.874Z,98.35
2019-03-20T01:19:42.879Z,95.65
2019-03-20T01:22:15.018Z,91.82
2019-03-20T01:24:48.992Z,92.55
2019-03-20T01:27:19.924Z,100.70
2019-03-20T01:29:59.749Z,96.15
2019-03-20T01:32:31.667Z,97.57
2019-03-20T01:37:50.516Z,101.53
2019-03-20T01:40:21.674Z,96.22
2019-03-20T01:42:53.795Z,97.42
2019-03-20T01:45:26.059Z,100.82
2019-03-20T01:47:58.198Z,98.78
2019-03-20T01:50:30.297Z,96.97
2019-03-20T01:53:02.420Z,110.88
2019-03-20T01:55:39.602Z,92.05
2019-03-20T01:58:13.416Z,101.00
2019-03-20T02:00:45.645Z,90.77
2019-03-20T02:03:20.431Z,95.95
2019-03-20T02:05:52.449Z,97.62
2019-03-20T02:08:26.234Z,91.87
2019-03-20T02:10:58.570Z,92.12
2019-03-20T02:13:30.533Z,88.75
2019-03-20T02:16:02.445Z,84.72
2019-03-20T02:18:42.273Z,83.37
2019-03-20T02:21:14.208Z,83.03
2019-03-20T02:23:46.277Z,79.72
2019-03-20T02:26:18.483Z,79.80
2019-03-20T02:28:52.131Z,80.57
2019-03-20T02:31:24.178Z,81.17
2019-03-20T02:33:58.253Z,82.72
2019-03-20T02:36:31.786Z,94.15
2019-03-20T02:39:03.939Z,89.07
2019-03-20T02:41:37.747Z,85.10
2019-03-20T02:44:11.622Z,80.90
2019-03-20T02:46:45.019Z,82.72
2019-03-20T02:49:17.031Z,78.47
2019-03-20T02:51:49.152Z,78.97
2019-03-20T02:54:23.104Z,77.75
2019-03-20T02:56:58.417Z,77.60
2019-03-20T02:59:30.048Z,78.80
2019-03-20T03:02:01.894Z,76.20
2019-03-20T03:04:34.131Z,80.67
2019-03-20T03:07:05.052Z,72.58
2019-03-20T03:09:36.955Z,75.90
2019-03-20T03:12:08.002Z,79.40
2019-03-20T03:14:38.923Z,71.90
2019-03-20T03:17:11.244Z,75.70
2019-03-20T03:19:44.969Z,76.02
2019-03-20T03:22:17.119Z,80.00
2019-03-20T03:24:49.235Z,76.30
2019-03-20T03:27:21.206Z,72.70
2019-03-20T03:29:53.334Z,78.37
2019-03-20T03:32:25.397Z,75.60
2019-03-20T03:34:56.338Z,75.72
2019-03-20T03:37:30.092Z,73.15
2019-03-20T03:40:02.237Z,72.10
2019-03-20T03:42:38.823Z,74.55
2019-03-20T03:45:13.653Z,75.70
2019-03-20T03:47:45.729Z,74.60
2019-03-20T03:50:18.687Z,72.15
2019-03-20T03:52:49.708Z,74.90
2019-03-20T03:55:21.612Z,71.33
2019-03-20T03:57:53.531Z,65.22
2019-03-20T04:00:25.474Z,70.80
2019-03-20T04:02:57.614Z,68.07
2019-03-20T04:07:05.874Z,58.55
2019-03-20T04:09:37.022Z,64.97
2019-03-20T04:12:11.148Z,66.33
2019-03-20T04:14:42.575Z,65.70
2019-03-20T04:17:17.406Z,67.22
2019-03-20T04:19:49.839Z,61.37
2019-03-20T04:22:24.077Z,59.58
2019-03-20T04:24:58.663Z,58.63
2019-03-20T04:27:31.204Z,58.63
2019-03-20T04:30:02.416Z,61.70
2019-03-20T04:32:34.842Z,56.02
2019-03-20T04:35:07.408Z,57.15
2019-03-20T04:37:41.447Z,56.33
2019-03-20T04:40:14.920Z,62.38
2019-03-20T04:42:46.254Z,61.02
2019-03-20T04:45:19.206Z,57.27
2019-03-20T04:47:53.565Z,54.25
2019-03-20T04:50:27.862Z,58.60
2019-03-20T04:53:00.206Z,57.27
2019-03-20T04:55:32.779Z,59.63
2019-03-20T04:58:05.122Z,52.90
2019-03-20T05:00:37.476Z,59.27
2019-03-20T05:03:10.033Z,55.12
2019-03-20T05:05:43.007Z,53.63
2019-03-20T05:08:16.947Z,56.65
2019-03-20T05:10:50.782Z,53.65
2019-03-20T05:13:23.064Z,54.05
2019-03-20T05:15:57.986Z,53.60
2019-03-20T05:18:32.048Z,54.15
2019-03-20T05:21:04.644Z,54.08
2019-03-20T05:23:37.058Z,50.12
2019-03-20T05:26:15.107Z,49.90
2019-03-20T05:28:51.909Z,53.15
2019-03-20T05:31:28.914Z,50.98
2019-03-20T05:34:01.530Z,51.80
2019-03-20T05:36:33.735Z,50.48
2019-03-20T05:39:09.070Z,51.00
2019-03-20T05:41:40.585Z,51.35
2019-03-20T05:44:13.487Z,49.93
2019-03-20T05:46:46.074Z,53.63
2019-03-20T05:49:18.519Z,50.78
2019-03-20T05:51:55.463Z,50.92
2019-03-20T05:54:27.087Z,51.35
2019-03-20T05:57:00.888Z,57.03
2019-03-20T05:59:37.643Z,52.23
2019-03-20T06:02:11.473Z,53.52
2019-03-20T06:04:43.795Z,53.00
2019-03-20T06:07:21.609Z,52.05
2019-03-20T06:09:50.758Z,48.33
2019-03-20T06:12:27.854Z,51.17
2019-03-20T06:15:02.251Z,52.23
2019-03-20T06:17:37.149Z,50.90
2019-03-20T06:20:14.711Z,51.70
2019-03-20T06:22:47.056Z,47.73
2019-03-20T06:25:21.690Z,49.90
2019-03-20T06:27:56.055Z,49.05
2019-03-20T06:30:30.476Z,42.65
2019-03-20T06:33:03.103Z,46.70
2019-03-20T06:35:35.337Z,43.83
2019-03-20T06:38:07.569Z,45.45
2019-03-20T06:40:39.661Z,43.15
2019-03-20T06:43:11.899Z,43.10
2019-03-20T06:45:44.326Z,42.48
2019-03-20T06:48:23.002Z,45.08
2019-03-20T06:51:02.995Z,45.55
2019-03-20T06:53:35.367Z,44.55
2019-03-20T06:56:13.579Z,44.98
2019-03-20T06:58:46.769Z,44.75
2019-03-20T07:01:23.181Z,44.03
2019-03-20T07:03:58.286Z,44.42
2019-03-20T07:06:33.631Z,42.13
2019-03-20T07:09:08.869Z,42.50
2019-03-20T07:11:42.725Z,43.58
2019-03-20T07:14:15.031Z,41.80
2019-03-20T07:16:47.226Z,40.85
2019-03-20T07:19:18.495Z,41.23
2019-03-20T07:21:50.707Z,42.67
2019-03-20T07:24:24.007Z,40.40
2019-03-20T07:27:01.660Z,40.40
2019-03-20T07:29:33.808Z,41.58
2019-03-20T07:32:06.570Z,42.90
2019-03-20T07:34:39.365Z,40.92
2019-03-20T07:37:12.301Z,40.15
2019-03-20T07:39:45.464Z,40.20
2019-03-20T07:42:19.792Z,42.17
2019-03-20T07:44:53.426Z,39.63
2019-03-20T07:47:32.986Z,40.23
2019-03-20T07:53:06.259Z,40.85
2019-03-20T07:55:38.678Z,40.45
2019-03-20T07:58:09.948Z,40.08
2019-03-20T08:00:44.651Z,40.00
2019-03-20T08:03:18.879Z,38.88
2019-03-20T08:05:51.139Z,40.60
2019-03-20T08:08:26.234Z,39.65
2019-03-20T08:10:58.862Z,40.33
2019-03-20T08:13:33.177Z,38.88
2019-03-20T08:16:13.354Z,41.58
2019-03-20T08:18:46.128Z,40.00
2019-03-20T08:21:20.275Z,41.48
2019-03-20T08:23:54.285Z,41.15
2019-03-20T08:26:34.044Z,43.43
2019-03-20T08:29:08.270Z,39.75
2019-03-20T08:31:41.960Z,41.55
2019-03-20T08:34:14.329Z,42.38
2019-03-20T08:36:46.536Z,45.63
2019-03-20T08:39:21.194Z,43.65
2019-03-20T08:41:55.828Z,43.42
2019-03-20T08:44:28.361Z,42.25
2019-03-20T08:47:06.750Z,42.48
2019-03-20T08:49:33.375Z,42.67
2019-03-20T08:52:08.065Z,41.75
2019-03-20T08:54:39.539Z,40.05
2019-03-20T08:57:12.280Z,40.70
2019-03-20T08:59:45.128Z,41.50
2019-03-20T09:02:19.121Z,40.25
2019-03-20T09:04:50.338Z,42.70
2019-03-20T09:07:22.720Z,43.35
2019-03-20T09:09:56.596Z,38.80
2019-03-20T09:13:07.276Z,40.43
2019-03-20T09:15:07.716Z,39.40
2019-03-20T09:17:40.297Z,38.98
2019-03-20T09:20:15.290Z,37.73
2019-03-20T09:25:31.093Z,38.78
2019-03-20T09:28:03.760Z,38.17
2019-03-20T09:30:36.210Z,38.48
2019-03-20T09:33:07.768Z,40.12
2019-03-20T09:35:39.845Z,38.45
2019-03-20T09:38:12.695Z,38.60
2019-03-20T09:40:47.664Z,38.95
2019-03-20T09:45:53.724Z,37.03
2019-03-20T09:48:26.436Z,39.80
2019-03-20T09:51:07.896Z,42.60
2019-03-20T09:53:40.135Z,39.45
2019-03-20T09:56:12.480Z,37.83
2019-03-20T09:58:44.812Z,38.63
2019-03-20T10:01:15.859Z,40.67
2019-03-20T10:03:48.296Z,38.28
2019-03-20T10:06:22.468Z,40.90
2019-03-20T10:08:56.312Z,39.30
2019-03-20T10:11:28.681Z,39.80
2019-03-20T10:14:03.733Z,37.58
2019-03-20T10:16:36.506Z,39.33
2019-03-20T10:19:10.794Z,38.45
2019-03-20T10:21:44.880Z,40.35
2019-03-20T10:24:22.909Z,38.87
2019-03-20T10:26:53.951Z,39.53
2019-03-20T10:29:26.376Z,39.13
2019-03-20T10:32:00.433Z,40.03
2019-03-20T10:34:39.358Z,41.42
2019-03-20T10:37:08.313Z,46.28
2019-03-20T10:39:46.006Z,42.45
2019-03-20T10:42:18.207Z,39.35
2019-03-20T10:44:50.386Z,42.65
2019-03-20T10:47:22.384Z,40.98
2019-03-20T10:49:57.162Z,49.55
2019-03-20T10:52:29.444Z,44.05
2019-03-20T10:55:03.033Z,48.70
2019-03-20T10:57:35.663Z,51.35
2019-03-20T11:00:12.460Z,56.13
2019-03-20T11:02:45.359Z,58.20
2019-03-20T11:05:18.324Z,53.33
2019-03-20T11:07:50.497Z,49.63
2019-03-20T11:10:27.625Z,46.28
2019-03-20T11:13:00.244Z,48.63
2019-03-20T11:15:32.782Z,76.70
2019-03-20T11:18:05.045Z,65.28
2019-03-20T11:20:40.725Z,55.70
2019-03-20T11:23:13.406Z,56.98
2019-03-20T11:25:49.399Z,46.37
2019-03-20T11:28:21.640Z,55.67
2019-03-20T11:30:52.871Z,56.08
2019-03-20T11:33:24.260Z,52.73
2019-03-20T11:35:56.624Z,59.13
2019-03-20T11:38:30.422Z,51.30
2019-03-20T11:41:04.500Z,49.40
2019-03-20T11:43:38.692Z,52.20
2019-03-20T11:46:12.363Z,47.58
2019-03-20T11:48:46.389Z,48.13
2019-03-20T11:51:18.558Z,47.48
2019-03-20T11:53:52.677Z,42.40
2019-03-20T11:56:27.095Z,44.10
2019-03-20T11:58:59.373Z,46.55
2019-03-20T12:01:32.223Z,43.33
2019-03-20T12:04:04.485Z,43.08
2019-03-20T12:06:36.580Z,47.33
2019-03-20T12:09:09.800Z,45.85
2019-03-20T12:11:46.036Z,44.88
2019-03-20T12:14:18.326Z,41.00
2019-03-20T12:19:23.524Z,43.48
2019-03-20T12:21:57.560Z,43.92
2019-03-20T12:24:30.267Z,42.65
2019-03-20T12:27:14.217Z,47.00
2019-03-20T12:29:38.739Z,45.25
2019-03-20T12:32:11.225Z,46.90
2019-03-20T12:34:45.450Z,49.13
2019-03-20T12:37:18.127Z,52.50
2019-03-20T12:39:53.485Z,43.15
2019-03-20T12:42:24.673Z,44.53
2019-03-20T12:44:57.323Z,47.88
2019-03-20T12:47:29.618Z,45.83
2019-03-20T12:50:03.577Z,47.33
2019-03-20T12:52:41.376Z,46.55
2019-03-20T12:55:15.002Z,45.43
2019-03-20T12:57:47.329Z,45.73
2019-03-20T13:00:27.063Z,49.42
2019-03-20T13:02:59.924Z,49.45
2019-03-20T13:05:32.302Z,46.97
2019-03-20T13:08:06.103Z,46.65
2019-03-20T13:10:39.701Z,48.20
2019-03-20T13:13:11.103Z,51.10
2019-03-20T13:15:44.982Z,46.53
2019-03-20T13:18:25.606Z,48.63
2019-03-20T13:21:00.017Z,49.53
2019-03-20T13:23:37.871Z,48.80
2019-03-20T13:26:19.068Z,48.73
2019-03-20T13:28:51.841Z,54.45
2019-03-20T13:31:29.093Z,50.63
2019-03-20T13:34:01.699Z,54.23
2019-03-20T13:36:34.760Z,53.87
2019-03-20T13:39:09.956Z,55.25
2019-03-20T13:41:44.073Z,56.63
2019-03-20T13:44:17.437Z,56.05
2019-03-20T13:46:53.773Z,55.20
2019-03-20T13:49:26.597Z,63.17
2019-03-20T13:52:02.343Z,62.17
2019-03-20T13:54:34.562Z,62.70
2019-03-20T13:57:08.584Z,63.10
2019-03-20T13:59:40.742Z,62.17
2019-03-20T14:02:13.278Z,66.97
2019-03-20T14:04:45.959Z,65.22
2019-03-20T14:07:48.420Z,64.40
2019-03-20T14:10:25.315Z,61.28
2019-03-20T14:12:58.309Z,64.53
2019-03-20T14:15:35.692Z,61.40
2019-03-20T14:18:07.512Z,62.03
2019-03-20T14:20:40.866Z,65.62
2019-03-20T14:23:12.373Z,70.60
2019-03-20T14:25:44.549Z,59.25
2019-03-20T14:28:17.230Z,65.40
2019-03-20T14:30:51.311Z,69.07
2019-03-20T14:33:23.954Z,66.05
2019-03-20T14:36:00.133Z,68.07
2019-03-20T14:38:46.845Z,63.45
2019-03-20T14:41:21.821Z,63.35
2019-03-20T14:43:55.847Z,63.38
2019-03-20T14:46:28.624Z,67.53
2019-03-20T14:49:01.232Z,67.97
2019-03-20T14:51:33.418Z,67.08
2019-03-20T14:54:05.799Z,69.05
2019-03-20T14:56:40.187Z,72.20
2019-03-20T14:59:14.680Z,70.67
2019-03-20T15:01:48.205Z,70.62
2019-03-20T15:04:20.680Z,72.15
2019-03-20T15:06:53.623Z,66.02
2019-03-20T15:09:28.075Z,67.25
2019-03-20T15:12:19.973Z,65.13
2019-03-20T15:14:52.676Z,73.42
2019-03-20T15:17:26.765Z,69.35
2019-03-20T15:20:02.148Z,76.05
2019-03-20T15:22:36.873Z,74.70
2019-03-20T15:25:12.006Z,68.22
2019-03-20T15:30:18.449Z,72.87
2019-03-20T15:32:52.805Z,78.12
2019-03-20T15:35:28.929Z,71.30
2019-03-20T15:38:03.438Z,74.60
2019-03-20T15:40:39.692Z,73.22
2019-03-20T15:43:20.891Z,66.75
2019-03-20T15:45:53.604Z,67.92
2019-03-20T15:48:31.035Z,71.70
2019-03-20T15:51:04.012Z,65.08
2019-03-20T15:53:36.585Z,70.87
2019-03-20T15:56:11.109Z,68.00
2019-03-20T15:58:44.245Z,69.35
2019-03-20T16:01:16.815Z,70.87
2019-03-20T16:03:54.071Z,67.15
2019-03-20T16:06:26.955Z,69.95
2019-03-20T16:08:59.769Z,71.80
2019-03-20T16:11:32.821Z,69.12
2019-03-20T16:14:05.727Z,67.05
2019-03-20T16:16:39.333Z,67.78
2019-03-20T16:19:12.630Z,71.07
2019-03-20T16:21:44.390Z,75.25
2019-03-20T16:24:19.025Z,73.97
2019-03-20T16:26:50.952Z,80.87
2019-03-20T16:29:24.130Z,75.25
2019-03-20T16:31:58.589Z,77.32
2019-03-20T16:34:34.095Z,73.37
2019-03-20T16:37:08.758Z,70.37
2019-03-20T16:39:41.682Z,77.47
2019-03-20T16:42:14.534Z,75.60
2019-03-20T16:44:47.453Z,71.02
2019-03-20T16:47:19.951Z,83.72
2019-03-20T16:49:54.839Z,77.60
2019-03-20T16:52:28.447Z,75.47
2019-03-20T16:55:01.318Z,74.75
2019-03-20T16:57:36.175Z,77.42
2019-03-20T17:00:13.494Z,76.70
2019-03-20T17:02:46.494Z,75.25
2019-03-20T17:05:20.759Z,71.75
2019-03-20T17:07:52.580Z,72.75
2019-03-20T17:10:30.500Z,74.03
2019-03-20T17:13:03.939Z,71.90
2019-03-20T17:15:40.229Z,72.47
2019-03-20T17:18:13.012Z,72.08
2019-03-20T17:20:45.592Z,70.57
2019-03-20T17:23:20.261Z,71.62
2019-03-20T17:25:53.388Z,72.90
2019-03-20T17:28:26.117Z,67.00
2019-03-20T17:30:59.700Z,75.57
2019-03-20T17:33:32.707Z,80.60
2019-03-20T17:36:05.199Z,75.37
2019-03-20T17:38:38.131Z,73.37
2019-03-20T17:41:11.380Z,77.87
2019-03-20T17:43:43.338Z,75.47
2019-03-20T17:46:14.989Z,76.28
2019-03-20T17:48:47.758Z,74.12
2019-03-20T17:51:20.111Z,76.22
2019-03-20T17:53:53.317Z,73.10
2019-03-20T17:56:25.756Z,71.72
2019-03-20T17:58:58.161Z,81.78
2019-03-20T18:01:29.690Z,73.37
2019-03-20T18:04:04.261Z,71.92
2019-03-20T18:06:35.898Z,67.50
2019-03-20T18:09:09.698Z,71.80
2019-03-20T18:11:47.436Z,69.82
2019-03-20T18:16:48.091Z,68.80
2019-03-20T18:19:20.862Z,72.42
2019-03-20T18:21:53.407Z,73.20
2019-03-20T18:24:27.694Z,77.00
2019-03-20T18:27:00.893Z,79.42
2019-03-20T18:29:33.419Z,79.17
2019-03-20T18:32:05.995Z,73.42
2019-03-20T18:34:41.564Z,81.17
2019-03-20T18:37:16.843Z,74.55
2019-03-20T18:39:50.048Z,70.65
2019-03-20T18:42:21.819Z,70.32
2019-03-20T18:44:53.367Z,70.72
2019-03-20T18:47:26.070Z,68.70
2019-03-20T18:50:00.638Z,76.55
2019-03-20T18:52:33.237Z,71.07
2019-03-20T18:55:04.734Z,67.87
2019-03-20T18:57:37.779Z,68.75
2019-03-20T19:00:29.044Z,70.50
2019-03-20T19:03:10.711Z,76.12
2019-03-20T19:05:43.309Z,66.40
2019-03-20T19:08:16.002Z,67.37
2019-03-20T19:10:55.329Z,69.32
2019-03-20T19:13:28.219Z,69.40
2019-03-20T19:16:01.185Z,72.65
2019-03-20T19:18:37.585Z,75.65
2019-03-20T19:21:10.761Z,74.45
2019-03-20T19:23:49.442Z,76.57
2019-03-20T19:26:22.448Z,77.08
2019-03-20T19:28:55.788Z,70.78
2019-03-20T19:31:28.904Z,78.52
2019-03-20T19:34:04.024Z,78.20
2019-03-20T19:36:35.810Z,85.42
2019-03-20T19:39:09.714Z,83.00
2019-03-20T19:41:42.685Z,80.12
2019-03-20T19:44:14.380Z,76.92
2019-03-20T19:46:46.244Z,76.95
2019-03-20T19:49:26.104Z,82.85
2019-03-20T19:52:04.083Z,83.72
2019-03-20T19:54:36.367Z,79.30
2019-03-20T19:57:11.033Z,83.17
2019-03-20T19:59:42.858Z,79.20
2019-03-20T20:02:15.843Z,85.00
2019-03-20T20:04:49.690Z,95.35
2019-03-20T20:07:24.579Z,95.90
2019-03-20T20:10:02.139Z,100.10
2019-03-20T20:12:36.550Z,97.53
2019-03-20T20:15:15.660Z,103.95
2019-03-20T20:17:50.061Z,98.67
2019-03-20T20:20:26.889Z,95.97
2019-03-20T20:22:59.724Z,95.22
2019-03-20T20:25:31.462Z,91.90
2019-03-20T20:28:04.276Z,91.53
2019-03-20T20:30:40.345Z,93.52
2019-03-20T20:33:13.144Z,101.30
2019-03-20T20:35:44.833Z,95.15
2019-03-20T20:38:20.660Z,97.15
2019-03-20T20:40:54.121Z,96.25
2019-03-20T20:43:27.118Z,93.60
2019-03-20T20:45:59.907Z,92.05
2019-03-20T20:48:33.002Z,94.72
2019-03-20T20:51:05.670Z,91.63
2019-03-20T20:53:38.586Z,90.35
2019-03-20T20:56:11.387Z,89.35
2019-03-20T20:58:43.328Z,88.33
2019-03-20T21:01:15.801Z,94.00
2019-03-20T21:03:48.597Z,95.20
2019-03-20T21:06:21.395Z,94.22
2019-03-20T21:08:53.505Z,93.00
2019-03-20T21:11:26.104Z,95.87
2019-03-20T21:13:58.855Z,89.87
2019-03-20T21:16:30.800Z,93.55
2019-03-20T21:19:21.921Z,88.60
2019-03-20T21:22:00.188Z,84.35
2019-03-20T21:24:37.777Z,93.10
2019-03-20T21:27:10.495Z,83.03
2019-03-20T21:30:21.002Z,80.07
2019-03-20T21:32:57.102Z,78.33
2019-03-20T21:35:34.763Z,82.25
2019-03-20T21:38:27.160Z,84.10
2019-03-20T21:41:28.931Z,77.85
2019-03-20T21:44:06.573Z,83.10
2019-03-20T21:46:59.558Z,81.12
2019-03-20T21:49:31.350Z,80.15
2019-03-20T21:52:03.319Z,82.30
2019-03-20T21:54:38.953Z,82.22
2019-03-20T21:57:15.547Z,80.15
2019-03-20T22:00:01.311Z,82.00
2019-03-20T22:05:41.075Z,79.50
2019-03-20T22:08:13.952Z,84.45
2019-03-20T22:11:07.175Z,82.45
2019-03-20T22:13:42.444Z,78.78
2019-03-20T22:16:35.864Z,81.95
2019-03-20T22:19:09.040Z,81.08
2019-03-20T22:21:42.293Z,82.78
2019-03-20T22:24:51.309Z,83.47
2019-03-20T22:27:29.465Z,87.15
2019-03-20T22:30:02.353Z,85.05
2019-03-20T22:32:33.632Z,80.50
2019-03-20T22:35:14.248Z,77.00
2019-03-20T22:37:45.965Z,86.97
2019-03-20T22:40:17.263Z,78.72
2019-03-20T22:43:11.929Z,76.57
2019-03-20T22:46:02.218Z,59.23
2019-03-20T22:48:50.996Z,82.70
2019-03-20T22:51:28.437Z,79.05
2019-03-20T22:54:36.136Z,74.55
2019-03-20T22:57:26.779Z,79.80
2019-03-20T22:59:59.278Z,76.15
2019-03-20T23:02:35.501Z,81.60
2019-03-20T23:05:09.513Z,81.75
2019-03-20T23:07:42.419Z,77.62
2019-03-20T23:10:19.367Z,78.80
2019-03-20T23:12:52.050Z,79.15
2019-03-20T23:15:27.614Z,78.95
2019-03-20T23:18:03.819Z,77.62
2019-03-20T23:20:39.517Z,79.60
2019-03-20T23:23:16.058Z,84.62
2019-03-20T23:25:48.762Z,84.97
2019-03-20T23:28:21.744Z,84.22
2019-03-20T23:30:54.405Z,90.50
2019-03-20T23:33:27.472Z,80.77
2019-03-20T23:36:01.233Z,82.12
2019-03-20T23:38:33.973Z,76.97
2019-03-20T23:41:06.577Z,100.58
2019-03-20T23:43:39.219Z,96.63
2019-03-20T23:46:12.115Z,101.20
2019-03-20T23:48:49.724Z,108.50
2019-03-20T23:51:32.707Z,119.22
2019-03-20T23:54:07.908Z,108.75
2019-03-20T23:56:42.535Z,97.08
2019-03-20T23:59:15.399Z,105.03
